Time;durP1;ratioP1;P1;durP2;ratioP2;P2;SDS_P1;SDS_P2;PMS_P1;PMS_P2;Temp;Humidity;BMP_temperature;BMP_pressure;BME280_temperature;BME280_humidity;BME280_pressure;Samples;Min_cycle;Max_cycle;Signal;HPM_P1;HPM_P2
2021/08/22 00:01:20;;;;;;;3.10;2.80;;;17.00;99.90;;;;;;487120;244;26712;-70
2021/08/22 00:03:21;;;;;;;3.33;3.03;;;17.00;99.90;;;;;;487124;244;28771;-70
2021/08/22 00:05:22;;;;;;;3.00;2.73;;;17.00;99.90;;;;;;487033;244;28805;-72
2021/08/22 00:07:23;;;;;;;5.17;3.37;;;17.00;99.90;;;;;;487140;244;28816;-70
2021/08/22 00:09:25;;;;;;;5.50;3.27;;;17.00;99.90;;;;;;487142;244;28758;-69
2021/08/22 00:11:26;;;;;;;5.43;3.20;;;17.00;99.90;;;;;;487142;244;28801;-69
2021/08/22 00:13:27;;;;;;;3.27;2.90;;;17.10;99.90;;;;;;487161;244;28818;-70
2021/08/22 00:15:28;;;;;;;3.43;3.13;;;17.10;99.90;;;;;;487132;244;29084;-71
2021/08/22 00:17:30;;;;;;;3.07;2.77;;;17.10;99.90;;;;;;487147;244;28717;-72
2021/08/22 00:19:31;;;;;;;4.63;3.30;;;17.10;99.90;;;;;;487147;244;29315;-69
2021/08/22 00:21:32;;;;;;;4.00;3.30;;;17.10;99.90;;;;;;487104;244;29159;-71
2021/08/22 00:23:33;;;;;;;2.93;2.73;;;17.10;99.90;;;;;;487126;244;29328;-71
2021/08/22 00:25:35;;;;;;;2.73;2.53;;;17.10;99.90;;;;;;487129;244;29241;-70
2021/08/22 00:27:36;;;;;;;3.80;2.57;;;17.10;99.90;;;;;;487145;244;28784;-70
2021/08/22 00:29:37;;;;;;;3.20;2.90;;;17.10;99.90;;;;;;487150;244;28753;-72
2021/08/22 00:31:38;;;;;;;3.43;2.83;;;17.00;99.90;;;;;;487133;244;28816;-71
2021/08/22 00:33:40;;;;;;;3.10;2.80;;;17.00;99.90;;;;;;487152;244;28745;-71
2021/08/22 00:35:41;;;;;;;3.23;2.93;;;16.90;99.90;;;;;;487169;244;28809;-71
2021/08/22 00:37:42;;;;;;;3.67;3.23;;;16.90;99.90;;;;;;487189;244;28736;-71
2021/08/22 00:39:43;;;;;;;3.30;3.00;;;16.90;99.90;;;;;;487177;244;28759;-71
2021/08/22 00:41:45;;;;;;;2.60;2.40;;;16.90;99.90;;;;;;487169;244;28858;-71
2021/08/22 00:43:46;;;;;;;3.40;3.10;;;16.90;99.90;;;;;;487187;244;28721;-71
2021/08/22 00:45:47;;;;;;;3.30;3.10;;;16.90;99.90;;;;;;487195;244;29367;-71
2021/08/22 00:47:48;;;;;;;3.57;2.73;;;16.90;99.90;;;;;;487173;244;29176;-70
2021/08/22 00:49:50;;;;;;;2.80;2.60;;;16.90;99.90;;;;;;487162;244;29245;-70
2021/08/22 00:51:51;;;;;;;3.20;2.90;;;16.90;99.90;;;;;;487164;244;28756;-72
2021/08/22 00:53:52;;;;;;;2.80;2.60;;;16.90;99.90;;;;;;487180;244;28694;-72
2021/08/22 00:55:53;;;;;;;3.27;2.97;;;17.00;99.90;;;;;;487183;244;28743;-72
2021/08/22 00:57:56;;;;;;;2.90;2.70;;;;;;;;;;487165;244;28838;-72
2021/08/22 00:59:57;;;;;;;4.43;2.97;;;16.90;99.90;;;;;;487159;244;26292;-71
2021/08/22 01:01:59;;;;;;;3.20;3.00;;;;;;;;;;487161;244;28728;-70
2021/08/22 01:04:01;;;;;;;3.23;2.90;;;16.90;99.90;;;;;;487181;244;27374;-71
2021/08/22 01:06:02;;;;;;;3.03;2.83;;;16.90;99.90;;;;;;487168;244;28928;-71
2021/08/22 01:08:03;;;;;;;3.50;2.63;;;17.00;99.90;;;;;;487128;244;28764;-71
2021/08/22 01:10:04;;;;;;;2.60;2.40;;;17.00;99.90;;;;;;487042;244;28741;-71
2021/08/22 01:12:06;;;;;;;3.50;3.20;;;17.00;99.90;;;;;;487161;244;29367;-71
2021/08/22 01:14:07;;;;;;;3.90;3.20;;;17.00;99.90;;;;;;487157;244;29155;-71
2021/08/22 01:16:08;;;;;;;5.00;3.60;;;17.00;99.90;;;;;;487148;244;29382;-71
2021/08/22 01:18:09;;;;;;;3.73;3.30;;;16.90;99.90;;;;;;487138;244;28705;-71
2021/08/22 01:20:11;;;;;;;3.97;3.30;;;16.90;99.90;;;;;;487143;244;28821;-71
2021/08/22 01:22:12;;;;;;;4.97;3.83;;;17.00;99.90;;;;;;487161;244;28769;-71
2021/08/22 01:24:13;;;;;;;3.60;3.30;;;17.00;99.90;;;;;;487140;244;28791;-71
2021/08/22 01:26:14;;;;;;;4.00;3.50;;;17.00;99.90;;;;;;487139;244;28844;-69
2021/08/22 01:28:16;;;;;;;3.50;3.20;;;17.00;99.90;;;;;;487147;244;28726;-71
2021/08/22 01:30:17;;;;;;;3.90;3.60;;;17.00;99.90;;;;;;487156;244;28719;-69
2021/08/22 01:32:18;;;;;;;3.97;3.60;;;17.00;99.90;;;;;;487171;244;28841;-72
2021/08/22 01:34:19;;;;;;;6.20;3.60;;;17.00;99.90;;;;;;487142;244;28817;-70
2021/08/22 01:36:21;;;;;;;3.87;3.57;;;17.10;99.90;;;;;;487142;244;29198;-69
2021/08/22 01:38:22;;;;;;;7.63;3.47;;;17.10;99.90;;;;;;487118;244;30049;-71
2021/08/22 01:40:23;;;;;;;3.67;3.20;;;17.00;99.90;;;;;;487170;244;29175;-69
2021/08/22 01:42:24;;;;;;;5.07;3.40;;;17.00;99.90;;;;;;487144;244;29231;-69
2021/08/22 01:44:26;;;;;;;3.50;3.20;;;17.00;99.90;;;;;;487145;244;28706;-70
2021/08/22 01:46:27;;;;;;;3.50;3.20;;;17.00;99.90;;;;;;487143;244;28847;-69
2021/08/22 01:48:28;;;;;;;4.27;3.80;;;16.90;99.90;;;;;;487141;244;28797;-70
2021/08/22 01:50:29;;;;;;;3.40;3.10;;;16.90;99.90;;;;;;487144;244;28713;-70
2021/08/22 01:52:31;;;;;;;3.40;3.10;;;16.90;99.90;;;;;;487142;244;28982;-69
2021/08/22 01:54:32;;;;;;;3.67;3.37;;;16.90;99.90;;;;;;487131;244;28754;-69
2021/08/22 01:56:33;;;;;;;3.60;3.30;;;16.80;99.90;;;;;;487147;244;28765;-69
2021/08/22 01:58:34;;;;;;;3.60;3.30;;;16.80;99.90;;;;;;487174;244;29262;-70
2021/08/22 02:00:36;;;;;;;3.20;2.90;;;16.80;99.90;;;;;;487146;244;29177;-69
2021/08/22 02:02:37;;;;;;;3.17;2.87;;;16.70;99.90;;;;;;487134;244;29279;-70
2021/08/22 02:04:38;;;;;;;4.03;3.40;;;16.70;99.90;;;;;;486601;244;29739;-70
2021/08/22 02:06:39;;;;;;;3.30;3.00;;;16.70;99.90;;;;;;487146;244;29227;-72
2021/08/22 02:08:41;;;;;;;4.07;3.20;;;16.80;99.90;;;;;;487171;244;28857;-71
2021/08/22 02:10:42;;;;;;;3.50;3.20;;;16.80;99.90;;;;;;487155;244;28832;-71
2021/08/22 02:12:43;;;;;;;4.50;3.50;;;16.80;99.90;;;;;;487118;244;28885;-71
2021/08/22 02:14:44;;;;;;;4.33;2.83;;;16.90;99.90;;;;;;487139;244;28888;-72
2021/08/22 02:16:46;;;;;;;3.60;3.30;;;16.90;99.90;;;;;;487132;244;28762;-72
2021/08/22 02:18:47;;;;;;;3.70;3.40;;;16.90;99.90;;;;;;487152;244;29118;-71
2021/08/22 02:20:48;;;;;;;3.17;2.90;;;16.90;99.90;;;;;;487138;244;28708;-71
2021/08/22 02:22:50;;;;;;;3.57;3.27;;;16.90;99.90;;;;;;487141;244;28760;-71
2021/08/22 02:24:52;;;;;;;3.20;2.90;;;16.90;99.90;;;;;;487127;244;29426;-71
2021/08/22 02:26:52;;;;;;;4.10;2.93;;;17.00;99.90;;;;;;487084;244;29430;-72
2021/08/22 02:28:53;;;;;;;3.60;2.97;;;17.00;99.90;;;;;;487190;244;29328;-71
2021/08/22 02:30:54;;;;;;;4.10;3.70;;;17.00;99.90;;;;;;487174;244;28717;-71
2021/08/22 02:32:56;;;;;;;3.27;2.97;;;17.00;99.90;;;;;;487163;244;28749;-71
2021/08/22 02:34:57;;;;;;;3.87;3.30;;;17.00;99.90;;;;;;487154;244;28708;-71
2021/08/22 02:36:58;;;;;;;3.30;2.90;;;17.10;99.90;;;;;;487175;244;28727;-70
2021/08/22 02:38:59;;;;;;;3.87;3.10;;;17.10;99.90;;;;;;487183;244;28740;-71
2021/08/22 02:41:01;;;;;;;3.23;2.93;;;17.10;99.90;;;;;;487139;244;28823;-69
2021/08/22 02:43:02;;;;;;;3.43;3.10;;;17.10;99.90;;;;;;487159;244;28760;-69
2021/08/22 02:45:03;;;;;;;3.23;2.93;;;17.10;99.90;;;;;;487155;244;28804;-72
2021/08/22 02:47:04;;;;;;;3.50;3.20;;;17.10;99.90;;;;;;487151;244;28722;-72
2021/08/22 02:49:06;;;;;;;3.80;3.40;;;17.10;99.90;;;;;;487158;244;29236;-71
2021/08/22 02:51:07;;;;;;;3.40;3.10;;;17.10;99.90;;;;;;487146;244;29267;-71
2021/08/22 02:53:09;;;;;;;3.40;3.10;;;17.10;99.90;;;;;;487071;244;29302;-69
2021/08/22 02:55:09;;;;;;;3.50;3.20;;;17.10;99.90;;;;;;486952;244;29955;-70
2021/08/22 02:57:11;;;;;;;3.93;3.60;;;17.10;99.90;;;;;;487148;244;28726;-70
2021/08/22 02:59:12;;;;;;;4.00;3.60;;;17.20;99.90;;;;;;487137;244;28765;-72
2021/08/22 03:01:13;;;;;;;3.87;3.40;;;17.10;99.90;;;;;;487109;244;28702;-71
2021/08/22 03:03:14;;;;;;;4.17;3.50;;;17.10;99.90;;;;;;487105;244;28912;-72
2021/08/22 03:05:16;;;;;;;10.30;3.70;;;17.10;99.90;;;;;;487115;244;28801;-71
2021/08/22 03:07:17;;;;;;;3.97;3.57;;;17.10;99.90;;;;;;487128;244;28763;-72
2021/08/22 03:09:18;;;;;;;5.53;3.60;;;17.10;99.90;;;;;;487135;244;28761;-72
2021/08/22 03:11:19;;;;;;;3.90;3.47;;;17.20;99.90;;;;;;487124;244;28716;-72
2021/08/22 03:13:21;;;;;;;4.97;4.00;;;17.20;99.90;;;;;;487130;244;29427;-70
2021/08/22 03:15:22;;;;;;;3.97;3.60;;;17.20;99.90;;;;;;487127;244;29235;-72
2021/08/22 03:17:23;;;;;;;5.77;4.17;;;17.10;99.90;;;;;;487109;244;29184;-69
2021/08/22 03:19:24;;;;;;;4.10;3.70;;;17.10;99.90;;;;;;487150;244;28769;-71
2021/08/22 03:21:26;;;;;;;4.20;3.80;;;17.10;99.90;;;;;;487121;244;28947;-69
2021/08/22 03:23:27;;;;;;;5.00;4.37;;;17.20;99.90;;;;;;487091;244;28916;-72
2021/08/22 03:25:28;;;;;;;5.83;4.50;;;17.10;99.90;;;;;;487125;244;28721;-71
2021/08/22 03:27:29;;;;;;;5.70;4.30;;;17.00;99.90;;;;;;487151;244;29105;-72
2021/08/22 03:29:31;;;;;;;6.20;4.77;;;17.00;99.90;;;;;;487140;244;28796;-71
2021/08/22 03:31:32;;;;;;;6.23;4.87;;;17.10;99.90;;;;;;487113;244;28761;-72
2021/08/22 03:33:33;;;;;;;8.27;4.90;;;17.10;99.90;;;;;;487115;244;28852;-72
2021/08/22 03:35:34;;;;;;;5.27;4.77;;;17.10;99.90;;;;;;487150;244;28735;-69
2021/08/22 03:37:36;;;;;;;6.70;5.60;;;17.10;99.90;;;;;;487149;244;29361;-70
2021/08/22 03:39:37;;;;;;;6.47;4.97;;;17.10;99.90;;;;;;486972;244;29255;-72
2021/08/22 03:41:38;;;;;;;6.47;5.20;;;17.10;99.90;;;;;;487119;244;29303;-71
2021/08/22 03:43:39;;;;;;;9.10;6.63;;;17.20;99.90;;;;;;487122;244;29406;-72
2021/08/22 03:45:41;;;;;;;6.97;5.83;;;17.10;99.90;;;;;;487136;244;28757;-72
2021/08/22 03:47:42;;;;;;;8.40;6.50;;;17.10;99.90;;;;;;487147;244;28760;-71
2021/08/22 03:49:43;;;;;;;8.70;6.43;;;17.10;99.90;;;;;;487141;244;28855;-72
2021/08/22 03:51:44;;;;;;;7.40;6.37;;;17.10;99.90;;;;;;487142;244;28816;-72
2021/08/22 03:53:46;;;;;;;7.13;5.57;;;17.10;99.90;;;;;;487128;244;28861;-72
2021/08/22 03:55:47;;;;;;;10.63;6.50;;;17.00;99.90;;;;;;487141;244;29182;-71
2021/08/22 03:57:48;;;;;;;7.77;6.23;;;16.90;99.90;;;;;;487132;244;28719;-71
2021/08/22 03:59:49;;;;;;;8.43;6.30;;;16.90;99.90;;;;;;487123;244;28786;-70
2021/08/22 04:01:51;;;;;;;8.10;6.30;;;16.90;99.90;;;;;;487094;244;29163;-72
2021/08/22 04:03:52;;;;;;;7.77;6.33;;;16.90;99.90;;;;;;487120;244;29241;-70
2021/08/22 04:05:53;;;;;;;7.03;5.43;;;16.90;99.90;;;;;;487165;244;29232;-72
2021/08/22 04:07:55;;;;;;;7.37;5.83;;;16.90;99.90;;;;;;487155;244;29195;-69
2021/08/22 04:09:56;;;;;;;9.17;6.50;;;16.90;99.90;;;;;;487094;244;28974;-70
2021/08/22 04:11:57;;;;;;;7.30;5.73;;;16.90;99.90;;;;;;487172;244;28732;-70
2021/08/22 04:13:58;;;;;;;6.70;5.47;;;17.00;99.90;;;;;;487158;244;28748;-69
2021/08/22 04:15:59;;;;;;;6.67;5.97;;;17.00;99.90;;;;;;487154;244;28829;-71
2021/08/22 04:18:01;;;;;;;8.27;5.90;;;17.00;99.90;;;;;;487143;244;28794;-73
2021/08/22 04:20:02;;;;;;;7.30;6.07;;;17.00;99.90;;;;;;487144;244;28964;-70
2021/08/22 04:22:03;;;;;;;6.87;6.10;;;17.00;99.90;;;;;;487147;244;28711;-69
2021/08/22 04:24:04;;;;;;;7.77;6.30;;;17.10;99.90;;;;;;487155;244;28791;-70
2021/08/22 04:26:06;;;;;;;7.73;6.07;;;17.10;99.90;;;;;;487135;244;29255;-69
2021/08/22 04:28:07;;;;;;;9.27;7.10;;;17.10;99.90;;;;;;487124;244;29177;-70
2021/08/22 04:30:08;;;;;;;8.10;6.80;;;17.20;99.90;;;;;;487090;244;29336;-69
2021/08/22 04:32:10;;;;;;;8.00;6.70;;;17.20;99.90;;;;;;487090;244;29297;-70
2021/08/22 04:34:11;;;;;;;7.97;6.53;;;17.20;99.90;;;;;;487108;244;28826;-69
2021/08/22 04:36:12;;;;;;;6.70;5.33;;;17.20;99.90;;;;;;487065;244;28761;-70
2021/08/22 04:38:13;;;;;;;7.27;6.10;;;17.10;99.90;;;;;;487041;244;28887;-69
2021/08/22 04:40:14;;;;;;;7.10;6.40;;;17.10;99.90;;;;;;486987;244;28908;-69
2021/08/22 04:42:16;;;;;;;8.93;7.03;;;17.20;99.90;;;;;;487002;244;28763;-71
2021/08/22 04:44:17;;;;;;;9.20;6.77;;;17.20;99.90;;;;;;486832;244;28792;-72
2021/08/22 04:46:18;;;;;;;14.07;7.73;;;17.20;99.90;;;;;;487113;244;28811;-71
2021/08/22 04:48:19;;;;;;;9.03;6.90;;;17.20;99.90;;;;;;487037;244;28718;-70
2021/08/22 04:50:21;;;;;;;7.30;6.60;;;17.20;99.90;;;;;;487120;244;29249;-70
2021/08/22 04:52:22;;;;;;;8.80;6.80;;;17.30;99.90;;;;;;487147;244;29323;-70
2021/08/22 04:54:25;;;;;;;10.70;8.27;;;17.30;99.90;;;;;;487125;244;29309;-69
2021/08/22 04:56:24;;;;;;;10.83;7.20;;;17.20;99.90;;;;;;487038;244;28917;-70
2021/08/22 04:58:26;;;;;;;9.60;8.13;;;17.20;99.90;;;;;;487127;244;28735;-71
2021/08/22 05:00:27;;;;;;;9.60;7.33;;;17.20;99.90;;;;;;487096;244;28839;-72
2021/08/22 05:02:28;;;;;;;9.40;7.77;;;17.20;99.90;;;;;;487105;244;28755;-72
2021/08/22 05:04:30;;;;;;;9.43;7.23;;;17.20;99.90;;;;;;487130;244;28743;-71
2021/08/22 05:06:31;;;;;;;10.40;7.50;;;17.20;99.90;;;;;;487114;244;28838;-72
2021/08/22 05:08:32;;;;;;;7.33;6.60;;;17.20;99.90;;;;;;487119;244;28863;-72
2021/08/22 05:10:33;;;;;;;7.10;6.40;;;17.30;99.90;;;;;;487130;244;28721;-71
2021/08/22 05:12:35;;;;;;;8.90;6.90;;;17.30;99.90;;;;;;487109;244;29222;-71
2021/08/22 05:14:36;;;;;;;7.50;6.70;;;17.30;99.90;;;;;;487102;244;29366;-71
2021/08/22 05:16:37;;;;;;;7.80;6.53;;;17.40;99.90;;;;;;487108;244;29329;-69
2021/08/22 05:18:38;;;;;;;7.17;6.40;;;17.40;99.90;;;;;;487118;244;29687;-69
2021/08/22 05:20:40;;;;;;;7.57;6.30;;;17.40;99.90;;;;;;487126;244;28787;-70
2021/08/22 05:22:41;;;;;;;7.60;6.80;;;17.40;99.90;;;;;;487150;244;28865;-72
2021/08/22 05:24:42;;;;;;;5.90;5.30;;;17.40;99.90;;;;;;487149;244;28867;-72
2021/08/22 05:26:43;;;;;;;7.57;6.77;;;17.40;99.90;;;;;;487147;244;28784;-72
2021/08/22 05:28:45;;;;;;;8.20;6.43;;;17.40;99.90;;;;;;487136;244;28751;-72
2021/08/22 05:30:46;;;;;;;6.27;5.67;;;17.40;99.90;;;;;;487194;244;28810;-72
2021/08/22 05:32:47;;;;;;;6.87;6.17;;;17.50;99.90;;;;;;487160;244;28762;-70
2021/08/22 05:34:48;;;;;;;8.03;6.20;;;17.50;99.90;;;;;;487149;244;28920;-71
2021/08/22 05:36:50;;;;;;;6.17;5.57;;;17.50;99.90;;;;;;487123;244;29319;-71
2021/08/22 05:38:52;;;;;;;8.53;6.70;;;17.60;99.90;;;;;;487172;244;29339;-71
2021/08/22 05:40:52;;;;;;;6.37;5.77;;;17.60;99.90;;;;;;487082;244;29241;-71
2021/08/22 05:42:53;;;;;;;7.30;5.83;;;17.60;99.90;;;;;;487119;244;29243;-71
2021/08/22 05:44:55;;;;;;;9.00;7.00;;;17.70;99.90;;;;;;487104;244;28813;-71
2021/08/22 05:46:56;;;;;;;6.13;5.43;;;17.70;99.90;;;;;;487128;244;28758;-71
2021/08/22 05:48:57;;;;;;;8.53;5.90;;;17.60;99.90;;;;;;487148;244;28773;-71
2021/08/22 05:50:58;;;;;;;6.70;6.00;;;17.70;99.90;;;;;;487172;244;28704;-72
2021/08/22 05:53:00;;;;;;;6.80;5.67;;;17.60;99.90;;;;;;487150;244;28826;-71
2021/08/22 05:55:01;;;;;;;8.73;6.90;;;17.60;99.90;;;;;;487134;244;28885;-71
2021/08/22 05:57:02;;;;;;;7.57;6.77;;;17.60;99.90;;;;;;487120;244;28753;-71
2021/08/22 05:59:03;;;;;;;6.53;5.83;;;17.70;99.90;;;;;;487166;244;28820;-71
2021/08/22 06:01:05;;;;;;;9.87;7.30;;;17.70;99.90;;;;;;487182;244;29222;-71
2021/08/22 06:03:06;;;;;;;9.03;6.97;;;17.70;99.90;;;;;;487129;244;29235;-72
2021/08/22 06:05:07;;;;;;;7.23;6.43;;;17.70;99.90;;;;;;487183;244;29365;-71
2021/08/22 06:07:09;;;;;;;8.30;6.37;;;17.70;99.90;;;;;;487165;244;29288;-71
2021/08/22 06:09:10;;;;;;;8.53;6.73;;;17.60;99.90;;;;;;487193;244;28827;-71
2021/08/22 06:11:11;;;;;;;6.90;6.23;;;17.60;99.90;;;;;;487158;244;28814;-70
2021/08/22 06:13:12;;;;;;;7.60;6.50;;;17.60;99.90;;;;;;487172;244;28766;-70
2021/08/22 06:15:13;;;;;;;8.20;7.00;;;17.60;99.90;;;;;;487161;244;28818;-70
2021/08/22 06:17:15;;;;;;;8.40;7.10;;;17.60;99.90;;;;;;487158;244;28729;-72
2021/08/22 06:19:16;;;;;;;7.60;6.80;;;17.60;99.90;;;;;;487159;244;28815;-72
2021/08/22 06:21:17;;;;;;;12.20;7.17;;;17.50;99.90;;;;;;487151;244;28819;-70
2021/08/22 06:23:18;;;;;;;7.63;6.90;;;17.50;99.90;;;;;;487090;244;28789;-71
2021/08/22 06:25:20;;;;;;;9.00;7.30;;;17.60;99.90;;;;;;487149;244;29405;-71
2021/08/22 06:27:21;;;;;;;8.47;7.20;;;17.50;99.90;;;;;;487133;244;29164;-72
2021/08/22 06:29:22;;;;;;;8.00;7.20;;;17.50;99.90;;;;;;487143;244;29240;-71
2021/08/22 06:31:23;;;;;;;8.10;7.30;;;17.40;99.90;;;;;;487140;244;29216;-71
2021/08/22 06:33:25;;;;;;;9.83;8.00;;;17.50;99.90;;;;;;487122;244;28768;-72
2021/08/22 06:35:26;;;;;;;9.63;8.50;;;17.60;99.90;;;;;;487150;244;28857;-72
2021/08/22 06:37:27;;;;;;;10.17;9.13;;;17.50;99.90;;;;;;487148;244;28804;-69
2021/08/22 06:39:28;;;;;;;10.23;9.13;;;17.60;99.90;;;;;;487134;244;28749;-71
2021/08/22 06:41:31;;;;;;;10.60;9.50;;;17.60;99.90;;;;;;487135;244;28820;-71
2021/08/22 06:43:31;;;;;;;11.43;9.30;;;17.50;99.90;;;;;;487021;244;28761;-71
2021/08/22 06:45:32;;;;;;;11.90;9.10;;;17.50;99.90;;;;;;487142;244;28777;-72
2021/08/22 06:47:33;;;;;;;9.77;8.77;;;17.60;99.90;;;;;;487131;244;29182;-70
2021/08/22 06:49:35;;;;;;;9.80;8.60;;;17.60;99.90;;;;;;487139;244;29296;-70
2021/08/22 06:51:36;;;;;;;10.40;9.13;;;17.60;99.90;;;;;;487122;244;29945;-70
2021/08/22 06:53:37;;;;;;;9.90;8.47;;;17.60;99.90;;;;;;487147;244;28796;-69
2021/08/22 06:55:38;;;;;;;10.73;9.47;;;17.60;99.90;;;;;;487154;244;28807;-72
2021/08/22 06:57:40;;;;;;;11.70;10.50;;;17.60;99.90;;;;;;487078;244;28747;-72
2021/08/22 06:59:41;;;;;;;9.60;8.67;;;17.70;99.90;;;;;;487135;244;28800;-72
2021/08/22 07:01:42;;;;;;;10.70;8.47;;;17.70;99.90;;;;;;487136;244;28834;-71
2021/08/22 07:03:43;;;;;;;11.53;10.27;;;17.80;99.90;;;;;;487137;244;28719;-72
2021/08/22 07:05:45;;;;;;;10.70;9.43;;;17.70;99.90;;;;;;487213;244;29320;-69
2021/08/22 07:07:46;;;;;;;11.43;9.50;;;17.70;99.90;;;;;;487144;244;29272;-70
2021/08/22 07:09:47;;;;;;;11.00;9.50;;;17.80;99.90;;;;;;487133;244;29327;-70
2021/08/22 07:11:48;;;;;;;9.63;8.43;;;17.80;99.90;;;;;;487132;244;28860;-72
2021/08/22 07:13:50;;;;;;;10.87;8.87;;;17.80;99.90;;;;;;487143;244;28752;-72
2021/08/22 07:15:51;;;;;;;11.20;8.40;;;17.80;99.90;;;;;;487152;244;28767;-71
2021/08/22 07:17:52;;;;;;;8.73;7.23;;;17.90;99.90;;;;;;487159;244;28770;-71
2021/08/22 07:19:53;;;;;;;8.50;7.67;;;17.90;99.90;;;;;;487107;244;28947;-70
2021/08/22 07:21:55;;;;;;;8.77;7.63;;;18.00;99.90;;;;;;487133;244;28746;-71
2021/08/22 07:23:56;;;;;;;8.03;7.23;;;18.00;99.90;;;;;;487102;244;28720;-71
2021/08/22 07:25:57;;;;;;;8.93;7.87;;;18.00;99.90;;;;;;487134;244;29167;-70
2021/08/22 07:27:58;;;;;;;8.10;7.30;;;18.00;99.90;;;;;;487135;244;29203;-70
2021/08/22 07:30:00;;;;;;;7.43;6.73;;;18.00;99.90;;;;;;487135;244;29322;-71
2021/08/22 07:32:01;;;;;;;8.40;7.20;;;18.10;99.90;;;;;;487157;244;29324;-71
2021/08/22 07:34:02;;;;;;;6.60;6.00;;;18.10;99.90;;;;;;487131;244;28859;-72
2021/08/22 07:36:03;;;;;;;6.60;6.00;;;18.10;99.90;;;;;;487133;244;28826;-72
2021/08/22 07:38:05;;;;;;;6.90;6.23;;;18.20;99.90;;;;;;487132;244;28739;-71
2021/08/22 07:40:06;;;;;;;7.30;6.60;;;18.10;99.90;;;;;;487118;244;28814;-71
2021/08/22 07:42:07;;;;;;;6.37;5.77;;;18.10;99.90;;;;;;487164;244;29104;-72
2021/08/22 07:44:08;;;;;;;6.40;5.80;;;18.20;99.90;;;;;;487137;244;28715;-71
2021/08/22 07:46:10;;;;;;;6.50;5.90;;;18.20;99.90;;;;;;487089;244;28779;-71
2021/08/22 07:48:11;;;;;;;7.43;6.73;;;18.10;99.90;;;;;;487124;244;28835;-69
2021/08/22 07:50:12;;;;;;;7.10;6.40;;;18.10;99.90;;;;;;487140;244;29166;-70
2021/08/22 07:52:13;;;;;;;7.20;6.30;;;18.10;99.90;;;;;;487143;244;29211;-72
2021/08/22 07:54:15;;;;;;;7.20;6.50;;;18.10;99.90;;;;;;487157;244;29279;-71
2021/08/22 07:56:16;;;;;;;6.70;5.50;;;18.10;99.90;;;;;;487108;244;29460;-71
2021/08/22 07:58:17;;;;;;;6.90;5.90;;;18.20;99.90;;;;;;487130;244;28810;-70
2021/08/22 08:00:18;;;;;;;8.87;6.30;;;18.20;99.90;;;;;;487171;244;28719;-70
2021/08/22 08:02:20;;;;;;;6.70;6.07;;;18.10;99.90;;;;;;487158;244;28767;-70
2021/08/22 08:04:21;;;;;;;6.90;6.20;;;18.10;99.90;;;;;;487167;244;28734;-69
2021/08/22 08:06:22;;;;;;;6.53;5.40;;;18.10;99.90;;;;;;487176;244;28826;-71
2021/08/22 08:08:23;;;;;;;7.13;5.70;;;18.10;99.90;;;;;;487163;244;28851;-71
2021/08/22 08:10:26;;;;;;;7.07;6.13;;;18.10;99.90;;;;;;487130;244;28719;-71
2021/08/22 08:12:27;;;;;;;7.50;6.80;;;18.00;99.90;;;;;;487107;244;28750;-72
2021/08/22 08:14:27;;;;;;;6.63;5.67;;;18.10;99.90;;;;;;487093;244;28819;-71
2021/08/22 08:16:28;;;;;;;6.73;5.70;;;18.10;99.90;;;;;;487118;244;29202;-71
2021/08/22 08:18:30;;;;;;;6.30;5.70;;;18.30;99.90;;;;;;487140;244;30296;-71
2021/08/22 08:20:31;;;;;;;6.43;5.80;;;18.30;99.90;;;;;;487168;244;29168;-71
2021/08/22 08:22:32;;;;;;;6.33;5.50;;;18.40;99.90;;;;;;487149;244;28766;-71
2021/08/22 08:24:33;;;;;;;6.40;5.80;;;18.50;99.90;;;;;;487101;244;28806;-71
2021/08/22 08:26:36;;;;;;;6.00;5.47;;;18.40;99.90;;;;;;487146;244;28822;-71
2021/08/22 08:28:36;;;;;;;7.00;5.60;;;18.30;99.90;;;;;;487081;244;28734;-71
2021/08/22 08:30:37;;;;;;;6.00;5.10;;;18.40;99.90;;;;;;487139;244;28719;-70
2021/08/22 08:32:39;;;;;;;5.30;4.80;;;18.50;99.90;;;;;;487122;244;28764;-70
2021/08/22 08:34:40;;;;;;;5.60;5.00;;;18.50;99.90;;;;;;487134;244;28721;-71
2021/08/22 08:36:41;;;;;;;6.07;5.47;;;18.60;99.90;;;;;;487139;244;28745;-70
2021/08/22 08:38:42;;;;;;;5.00;4.50;;;18.60;99.90;;;;;;487122;244;28845;-72
2021/08/22 08:40:44;;;;;;;5.20;4.70;;;18.70;99.90;;;;;;487136;244;29164;-71
2021/08/22 08:42:45;;;;;;;5.73;5.23;;;18.70;99.90;;;;;;487116;244;30150;-72
2021/08/22 08:44:47;;;;;;;6.00;5.40;;;18.70;99.90;;;;;;487098;244;29275;-72
2021/08/22 08:46:47;;;;;;;5.93;5.17;;;18.60;99.90;;;;;;487144;244;28802;-71
2021/08/22 08:48:49;;;;;;;6.17;5.60;;;18.80;99.90;;;;;;487139;244;28748;-71
2021/08/22 08:50:50;;;;;;;7.17;6.17;;;18.90;99.90;;;;;;487103;244;28914;-71
2021/08/22 08:52:51;;;;;;;5.83;5.33;;;18.80;99.90;;;;;;487133;244;28822;-71
2021/08/22 08:54:52;;;;;;;5.60;5.10;;;18.80;99.90;;;;;;487112;244;28824;-71
2021/08/22 08:56:54;;;;;;;6.00;5.40;;;18.80;99.90;;;;;;487148;244;28714;-71
2021/08/22 08:58:55;;;;;;;6.43;4.90;;;18.90;99.90;;;;;;487190;244;28799;-71
2021/08/22 09:00:56;;;;;;;5.73;5.23;;;18.80;99.90;;;;;;487157;244;28773;-71
2021/08/22 09:02:57;;;;;;;5.70;5.20;;;18.90;99.90;;;;;;487139;244;28852;-69
2021/08/22 09:04:59;;;;;;;5.33;4.83;;;18.90;99.90;;;;;;487192;244;29286;-70
2021/08/22 09:07:00;;;;;;;6.07;5.13;;;18.90;99.90;;;;;;487191;244;29266;-71
2021/08/22 09:09:01;;;;;;;5.80;5.30;;;18.80;99.90;;;;;;487155;244;29267;-71
2021/08/22 09:11:02;;;;;;;5.57;5.07;;;18.90;99.90;;;;;;487164;244;29248;-71
2021/08/22 09:13:04;;;;;;;5.47;4.97;;;18.90;99.90;;;;;;487153;244;28765;-71
2021/08/22 09:15:05;;;;;;;6.90;5.83;;;18.90;99.90;;;;;;487168;244;28753;-71
2021/08/22 09:17:06;;;;;;;6.40;5.80;;;18.80;99.90;;;;;;487146;244;28823;-71
2021/08/22 09:19:07;;;;;;;6.47;5.57;;;18.70;99.90;;;;;;487154;244;28841;-71
2021/08/22 09:21:09;;;;;;;5.97;5.37;;;18.70;99.90;;;;;;487159;244;28802;-71
2021/08/22 09:23:10;;;;;;;8.23;5.60;;;18.60;99.90;;;;;;487128;244;28829;-71
2021/08/22 09:25:11;;;;;;;6.63;5.50;;;18.70;99.90;;;;;;487172;244;28863;-71
2021/08/22 09:27:12;;;;;;;6.13;5.53;;;18.80;99.90;;;;;;487170;244;28767;-71
2021/08/22 09:29:14;;;;;;;5.77;5.27;;;18.80;99.90;;;;;;487174;244;29275;-71
2021/08/22 09:31:15;;;;;;;6.10;5.03;;;18.90;99.90;;;;;;487170;244;29278;-71
2021/08/22 09:33:18;;;;;;;5.40;4.90;;;19.10;99.90;;;;;;487155;244;29179;-71
2021/08/22 09:35:17;;;;;;;5.50;5.00;;;19.30;99.90;;;;;;487053;244;28741;-71
2021/08/22 09:37:19;;;;;;;5.57;4.97;;;19.50;99.90;;;;;;487163;244;28789;-72
2021/08/22 09:39:20;;;;;;;5.63;5.07;;;19.40;99.90;;;;;;487166;244;28820;-72
2021/08/22 09:41:21;;;;;;;5.83;4.73;;;19.30;99.90;;;;;;487178;244;28734;-72
2021/08/22 09:43:22;;;;;;;5.13;4.63;;;19.20;99.90;;;;;;487176;244;28757;-72
2021/08/22 09:45:24;;;;;;;5.70;5.17;;;19.20;99.90;;;;;;487174;244;28773;-71
2021/08/22 09:47:25;;;;;;;5.17;4.67;;;19.30;99.90;;;;;;487147;244;28812;-71
2021/08/22 09:49:29;;;;;;;5.30;4.77;;;19.20;99.90;;;;;;487170;244;28752;-71
2021/08/22 09:51:30;;;;;;;4.97;4.47;;;19.20;99.90;;;;;;487160;244;28760;-71
2021/08/22 09:53:31;;;;;;;6.53;5.37;;;19.40;99.90;;;;;;487167;244;29192;-71
2021/08/22 09:55:33;;;;;;;5.40;4.60;;;19.20;99.90;;;;;;487172;244;28924;-72
2021/08/22 09:57:34;;;;;;;5.67;4.90;;;19.30;99.90;;;;;;487165;244;28749;-71
2021/08/22 09:59:35;;;;;;;4.63;4.23;;;19.50;99.90;;;;;;487164;244;29172;-71
2021/08/22 10:01:36;;;;;;;5.13;4.40;;;19.50;99.90;;;;;;487144;244;29315;-71
2021/08/22 10:03:38;;;;;;;5.50;4.97;;;19.50;99.90;;;;;;487195;244;29242;-71
2021/08/22 10:05:39;;;;;;;4.93;4.43;;;19.60;99.90;;;;;;487147;244;28721;-71
2021/08/22 10:07:40;;;;;;;4.93;4.23;;;19.70;99.90;;;;;;487183;244;28820;-71
2021/08/22 10:09:41;;;;;;;5.87;5.27;;;19.60;99.90;;;;;;487188;244;28786;-72
2021/08/22 10:11:43;;;;;;;4.70;4.23;;;19.60;99.90;;;;;;487137;244;28812;-71
2021/08/22 10:13:44;;;;;;;5.47;4.97;;;19.50;99.90;;;;;;487165;244;28818;-71
2021/08/22 10:15:46;;;;;;;4.53;4.13;;;19.60;99.90;;;;;;487180;244;28812;-71
2021/08/22 10:17:46;;;;;;;4.40;4.03;;;19.90;99.90;;;;;;487094;244;28761;-70
2021/08/22 10:19:48;;;;;;;4.57;4.17;;;19.90;99.90;;;;;;487170;244;28817;-70
2021/08/22 10:21:49;;;;;;;4.70;4.30;;;19.90;99.90;;;;;;487164;244;28745;-71
2021/08/22 10:23:52;;;;;;;4.57;4.17;;;19.80;99.90;;;;;;487189;244;29245;-71
2021/08/22 10:25:54;;;;;;;5.20;4.70;;;19.80;99.90;;;;;;487077;244;29454;-71
2021/08/22 10:27:53;;;;;;;5.00;4.47;;;19.60;99.90;;;;;;486988;244;29350;-71
2021/08/22 10:29:55;;;;;;;4.93;4.43;;;19.70;99.90;;;;;;487169;244;28896;-71